sensor_id;sensor_type;location;lat;lon;timestamp;P1;durP1;ratioP1;P2;durP2;ratioP2
23588;SDS011;11972;48.078;11.876;2023-04-03T00:00:57;20.55;;;13.70;;
23588;SDS011;11972;48.078;11.876;2023-04-03T00:04:57;22.77;;;15.05;;
23588;SDS011;11972;48.078;11.876;2023-04-03T00:08:58;9.70;;;8.52;;
23588;SDS011;11972;48.078;11.876;2023-04-03T00:12:58;12.32;;;10.35;;
23588;SDS011;11972;48.078;11.876;2023-04-03T00:16:58;56.72;;;31.17;;
23588;SDS011;11972;48.078;11.876;2023-04-03T00:20:59;23.75;;;16.02;;
23588;SDS011;11972;48.078;11.876;2023-04-03T00:24:59;7.43;;;6.72;;
23588;SDS011;11972;48.078;11.876;2023-04-03T00:29:00;7.18;;;6.57;;
23588;SDS011;11972;48.078;11.876;2023-04-03T00:33:00;7.47;;;6.78;;
23588;SDS011;11972;48.078;11.876;2023-04-03T00:37:00;7.88;;;7.18;;
23588;SDS011;11972;48.078;11.876;2023-04-03T00:41:01;8.00;;;7.28;;
23588;SDS011;11972;48.078;11.876;2023-04-03T00:49:01;7.67;;;6.97;;
23588;SDS011;11972;48.078;11.876;2023-04-03T00:53:02;8.68;;;7.85;;
23588;SDS011;11972;48.078;11.876;2023-04-03T00:57:03;9.32;;;8.43;;
23588;SDS011;11972;48.078;11.876;2023-04-03T01:01:06;8.80;;;7.93;;
23588;SDS011;11972;48.078;11.876;2023-04-03T01:05:11;9.77;;;8.75;;
23588;SDS011;11972;48.078;11.876;2023-04-03T01:09:13;9.45;;;8.45;;
23588;SDS011;11972;48.078;11.876;2023-04-03T01:13:17;10.27;;;9.13;;
23588;SDS011;11972;48.078;11.876;2023-04-03T01:21:49;10.77;;;9.68;;
23588;SDS011;11972;48.078;11.876;2023-04-03T01:25:58;10.68;;;9.57;;
23588;SDS011;11972;48.078;11.876;2023-04-03T01:29:59;11.18;;;10.07;;
23588;SDS011;11972;48.078;11.876;2023-04-03T01:33:59;11.00;;;9.90;;
23588;SDS011;11972;48.078;11.876;2023-04-03T01:38:00;10.45;;;9.40;;
23588;SDS011;11972;48.078;11.876;2023-04-03T01:42:00;10.13;;;9.15;;
23588;SDS011;11972;48.078;11.876;2023-04-03T01:46:01;10.98;;;8.98;;
23588;SDS011;11972;48.078;11.876;2023-04-03T01:50:01;10.43;;;9.52;;
23588;SDS011;11972;48.078;11.876;2023-04-03T01:54:01;11.55;;;9.68;;
23588;SDS011;11972;48.078;11.876;2023-04-03T01:58:02;10.25;;;9.15;;
23588;SDS011;11972;48.078;11.876;2023-04-03T02:02:02;10.57;;;9.55;;
23588;SDS011;11972;48.078;11.876;2023-04-03T02:06:02;10.05;;;9.07;;
23588;SDS011;11972;48.078;11.876;2023-04-03T02:10:03;9.38;;;8.48;;
23588;SDS011;11972;48.078;11.876;2023-04-03T02:14:03;9.82;;;8.57;;
23588;SDS011;11972;48.078;11.876;2023-04-03T02:18:04;10.05;;;9.05;;
23588;SDS011;11972;48.078;11.876;2023-04-03T02:22:05;10.07;;;9.07;;
23588;SDS011;11972;48.078;11.876;2023-04-03T02:26:09;9.40;;;8.50;;
23588;SDS011;11972;48.078;11.876;2023-04-03T02:30:11;10.18;;;8.82;;
23588;SDS011;11972;48.078;11.876;2023-04-03T02:34:12;10.30;;;9.00;;
23588;SDS011;11972;48.078;11.876;2023-04-03T02:38:13;8.57;;;7.70;;
23588;SDS011;11972;48.078;11.876;2023-04-03T02:42:13;9.13;;;8.23;;
23588;SDS011;11972;48.078;11.876;2023-04-03T02:46:13;8.02;;;7.15;;
23588;SDS011;11972;48.078;11.876;2023-04-03T02:50:15;9.70;;;7.75;;
23588;SDS011;11972;48.078;11.876;2023-04-03T02:54:15;8.38;;;7.57;;
23588;SDS011;11972;48.078;11.876;2023-04-03T02:58:16;8.80;;;7.90;;
23588;SDS011;11972;48.078;11.876;2023-04-03T03:02:16;8.55;;;7.75;;
23588;SDS011;11972;48.078;11.876;2023-04-03T03:06:17;7.93;;;7.20;;
23588;SDS011;11972;48.078;11.876;2023-04-03T03:10:17;8.65;;;7.85;;
23588;SDS011;11972;48.078;11.876;2023-04-03T03:14:18;8.25;;;7.47;;
23588;SDS011;11972;48.078;11.876;2023-04-03T03:18:18;9.10;;;8.20;;
23588;SDS011;11972;48.078;11.876;2023-04-03T03:22:19;9.48;;;8.57;;
23588;SDS011;11972;48.078;11.876;2023-04-03T03:26:19;11.40;;;8.07;;
23588;SDS011;11972;48.078;11.876;2023-04-03T03:30:20;8.55;;;7.75;;
23588;SDS011;11972;48.078;11.876;2023-04-03T03:34:20;8.70;;;7.90;;
23588;SDS011;11972;48.078;11.876;2023-04-03T03:38:21;9.10;;;8.20;;
23588;SDS011;11972;48.078;11.876;2023-04-03T03:42:21;8.73;;;7.90;;
23588;SDS011;11972;48.078;11.876;2023-04-03T03:46:22;8.73;;;7.82;;
23588;SDS011;11972;48.078;11.876;2023-04-03T03:50:22;8.55;;;7.72;;
23588;SDS011;11972;48.078;11.876;2023-04-03T03:54:23;9.82;;;8.30;;
23588;SDS011;11972;48.078;11.876;2023-04-03T03:58:23;8.15;;;7.35;;
23588;SDS011;11972;48.078;11.876;2023-04-03T04:02:23;8.75;;;7.95;;
23588;SDS011;11972;48.078;11.876;2023-04-03T04:06:24;8.55;;;7.72;;
23588;SDS011;11972;48.078;11.876;2023-04-03T04:10:25;8.68;;;7.57;;
23588;SDS011;11972;48.078;11.876;2023-04-03T04:14:25;9.52;;;8.52;;
23588;SDS011;11972;48.078;11.876;2023-04-03T04:18:26;8.70;;;7.85;;
23588;SDS011;11972;48.078;11.876;2023-04-03T04:22:26;8.70;;;7.80;;
23588;SDS011;11972;48.078;11.876;2023-04-03T04:26:27;7.82;;;7.03;;
23588;SDS011;11972;48.078;11.876;2023-04-03T04:30:27;13.23;;;7.47;;
23588;SDS011;11972;48.078;11.876;2023-04-03T04:34:27;7.82;;;7.10;;
23588;SDS011;11972;48.078;11.876;2023-04-03T04:38:28;9.02;;;8.23;;
23588;SDS011;11972;48.078;11.876;2023-04-03T04:42:28;8.52;;;7.70;;
23588;SDS011;11972;48.078;11.876;2023-04-03T04:46:28;8.35;;;7.63;;
23588;SDS011;11972;48.078;11.876;2023-04-03T04:50:29;8.57;;;7.78;;
23588;SDS011;11972;48.078;11.876;2023-04-03T04:54:30;8.00;;;7.20;;
23588;SDS011;11972;48.078;11.876;2023-04-03T04:58:30;7.95;;;7.15;;
23588;SDS011;11972;48.078;11.876;2023-04-03T05:02:30;8.23;;;7.43;;
23588;SDS011;11972;48.078;11.876;2023-04-03T05:06:31;9.60;;;8.02;;
23588;SDS011;11972;48.078;11.876;2023-04-03T05:10:31;8.70;;;7.80;;
23588;SDS011;11972;48.078;11.876;2023-04-03T05:14:32;8.38;;;7.68;;
23588;SDS011;11972;48.078;11.876;2023-04-03T05:18:32;8.65;;;7.78;;
23588;SDS011;11972;48.078;11.876;2023-04-03T05:22:33;8.65;;;7.93;;
23588;SDS011;11972;48.078;11.876;2023-04-03T05:26:33;8.57;;;7.68;;
23588;SDS011;11972;48.078;11.876;2023-04-03T05:30:33;8.43;;;7.63;;
23588;SDS011;11972;48.078;11.876;2023-04-03T05:34:34;8.18;;;7.43;;
23588;SDS011;11972;48.078;11.876;2023-04-03T05:38:34;6.93;;;6.32;;
23588;SDS011;11972;48.078;11.876;2023-04-03T05:42:34;7.85;;;7.15;;
23588;SDS011;11972;48.078;11.876;2023-04-03T05:46:35;7.47;;;6.75;;
23588;SDS011;11972;48.078;11.876;2023-04-03T05:50:35;7.30;;;6.60;;
23588;SDS011;11972;48.078;11.876;2023-04-03T05:54:35;7.63;;;6.85;;
23588;SDS011;11972;48.078;11.876;2023-04-03T05:58:36;10.07;;;9.18;;
23588;SDS011;11972;48.078;11.876;2023-04-03T06:02:36;6.18;;;5.65;;
23588;SDS011;11972;48.078;11.876;2023-04-03T06:10:48;5.32;;;4.88;;
23588;SDS011;11972;48.078;11.876;2023-04-03T06:14:48;5.60;;;5.18;;
23588;SDS011;11972;48.078;11.876;2023-04-03T06:18:48;4.85;;;4.45;;
23588;SDS011;11972;48.078;11.876;2023-04-03T06:22:49;4.95;;;4.55;;
23588;SDS011;11972;48.078;11.876;2023-04-03T06:26:50;5.13;;;4.72;;
23588;SDS011;11972;48.078;11.876;2023-04-03T06:30:52;5.38;;;4.78;;
23588;SDS011;11972;48.078;11.876;2023-04-03T06:34:52;4.60;;;4.20;;
23588;SDS011;11972;48.078;11.876;2023-04-03T06:38:53;4.70;;;4.30;;
23588;SDS011;11972;48.078;11.876;2023-04-03T06:42:53;5.03;;;4.55;;
23588;SDS011;11972;48.078;11.876;2023-04-03T06:46:54;4.65;;;4.25;;
23588;SDS011;11972;48.078;11.876;2023-04-03T06:50:54;4.20;;;3.90;;
23588;SDS011;11972;48.078;11.876;2023-04-03T06:54:55;4.30;;;3.90;;
23588;SDS011;11972;48.078;11.876;2023-04-03T06:59:00;4.00;;;3.70;;
23588;SDS011;11972;48.078;11.876;2023-04-03T07:03:01;4.00;;;3.70;;
23588;SDS011;11972;48.078;11.876;2023-04-03T07:07:01;3.72;;;3.42;;
23588;SDS011;11972;48.078;11.876;2023-04-03T07:11:01;3.53;;;3.05;;
23588;SDS011;11972;48.078;11.876;2023-04-03T07:15:02;3.50;;;3.20;;
23588;SDS011;11972;48.078;11.876;2023-04-03T07:19:04;3.30;;;3.00;;
23588;SDS011;11972;48.078;11.876;2023-04-03T07:23:04;3.30;;;3.00;;
23588;SDS011;11972;48.078;11.876;2023-04-03T07:27:05;3.30;;;3.00;;
23588;SDS011;11972;48.078;11.876;2023-04-03T07:31:07;3.08;;;2.78;;
23588;SDS011;11972;48.078;11.876;2023-04-03T07:35:12;3.33;;;3.03;;
23588;SDS011;11972;48.078;11.876;2023-04-03T07:39:12;3.58;;;3.28;;
23588;SDS011;11972;48.078;11.876;2023-04-03T07:43:12;3.78;;;3.13;;
23588;SDS011;11972;48.078;11.876;2023-04-03T07:47:13;3.15;;;2.92;;
23588;SDS011;11972;48.078;11.876;2023-04-03T07:51:16;3.15;;;2.88;;
23588;SDS011;11972;48.078;11.876;2023-04-03T07:55:16;4.03;;;3.10;;
23588;SDS011;11972;48.078;11.876;2023-04-03T07:59:16;3.50;;;3.20;;
23588;SDS011;11972;48.078;11.876;2023-04-03T08:03:17;4.88;;;3.70;;
23588;SDS011;11972;48.078;11.876;2023-04-03T08:07:17;4.43;;;3.60;;
23588;SDS011;11972;48.078;11.876;2023-04-03T08:11:17;3.38;;;3.08;;
23588;SDS011;11972;48.078;11.876;2023-04-03T08:15:18;3.33;;;3.13;;
23588;SDS011;11972;48.078;11.876;2023-04-03T08:19:19;3.95;;;3.30;;
23588;SDS011;11972;48.078;11.876;2023-04-03T08:23:19;4.18;;;3.35;;
23588;SDS011;11972;48.078;11.876;2023-04-03T08:27:20;3.67;;;3.38;;
23588;SDS011;11972;48.078;11.876;2023-04-03T08:31:21;3.85;;;3.55;;
23588;SDS011;11972;48.078;11.876;2023-04-03T08:35:21;3.17;;;2.92;;
23588;SDS011;11972;48.078;11.876;2023-04-03T08:39:21;3.20;;;2.97;;
23588;SDS011;11972;48.078;11.876;2023-04-03T08:47:29;3.30;;;3.00;;
23588;SDS011;11972;48.078;11.876;2023-04-03T08:51:39;3.80;;;3.50;;
23588;SDS011;11972;48.078;11.876;2023-04-03T08:55:46;3.40;;;3.10;;
23588;SDS011;11972;48.078;11.876;2023-04-03T08:59:49;2.90;;;2.70;;
23588;SDS011;11972;48.078;11.876;2023-04-03T09:03:50;3.80;;;3.00;;
23588;SDS011;11972;48.078;11.876;2023-04-03T09:07:58;3.53;;;2.45;;
23588;SDS011;11972;48.078;11.876;2023-04-03T09:16:20;2.70;;;2.50;;
23588;SDS011;11972;48.078;11.876;2023-04-03T09:20:39;3.80;;;2.50;;
23588;SDS011;11972;48.078;11.876;2023-04-03T09:25:01;3.03;;;2.83;;
23588;SDS011;11972;48.078;11.876;2023-04-03T09:29:18;3.83;;;3.00;;
23588;SDS011;11972;48.078;11.876;2023-04-03T09:33:21;3.60;;;2.78;;
23588;SDS011;11972;48.078;11.876;2023-04-03T09:37:41;3.13;;;2.88;;
23588;SDS011;11972;48.078;11.876;2023-04-03T09:41:54;3.55;;;2.60;;
23588;SDS011;11972;48.078;11.876;2023-04-03T09:46:16;2.95;;;2.75;;
23588;SDS011;11972;48.078;11.876;2023-04-03T09:50:30;2.78;;;2.58;;
23588;SDS011;11972;48.078;11.876;2023-04-03T09:58:39;2.70;;;2.50;;
23588;SDS011;11972;48.078;11.876;2023-04-03T10:02:41;4.82;;;4.38;;
23588;SDS011;11972;48.078;11.876;2023-04-03T10:06:43;3.22;;;2.50;;
23588;SDS011;11972;48.078;11.876;2023-04-03T10:11:05;2.65;;;1.95;;
23588;SDS011;11972;48.078;11.876;2023-04-03T10:15:17;7.00;;;4.05;;
23588;SDS011;11972;48.078;11.876;2023-04-03T10:19:29;3.53;;;3.00;;
23588;SDS011;11972;48.078;11.876;2023-04-03T10:23:57;1.88;;;1.77;;
23588;SDS011;11972;48.078;11.876;2023-04-03T10:28:03;3.25;;;2.03;;
23588;SDS011;11972;48.078;11.876;2023-04-03T10:32:15;1.70;;;1.60;;
23588;SDS011;11972;48.078;11.876;2023-04-03T10:40:34;2.35;;;2.15;;
23588;SDS011;11972;48.078;11.876;2023-04-03T10:44:50;3.08;;;2.63;;
23588;SDS011;11972;48.078;11.876;2023-04-03T10:57:32;3.20;;;2.90;;
23588;SDS011;11972;48.078;11.876;2023-04-03T11:01:33;3.67;;;3.38;;
23588;SDS011;11972;48.078;11.876;2023-04-03T11:05:42;3.35;;;3.10;;
23588;SDS011;11972;48.078;11.876;2023-04-03T11:09:46;2.90;;;2.70;;
23588;SDS011;11972;48.078;11.876;2023-04-03T11:13:51;3.40;;;3.05;;
23588;SDS011;11972;48.078;11.876;2023-04-03T11:18:13;2.90;;;2.70;;
23588;SDS011;11972;48.078;11.876;2023-04-03T11:26:39;2.83;;;2.20;;
23588;SDS011;11972;48.078;11.876;2023-04-03T11:30:46;2.60;;;2.40;;
23588;SDS011;11972;48.078;11.876;2023-04-03T11:34:54;2.95;;;2.28;;
23588;SDS011;11972;48.078;11.876;2023-04-03T11:43:22;4.07;;;2.90;;
23588;SDS011;11972;48.078;11.876;2023-04-03T11:51:46;3.30;;;2.73;;
23588;SDS011;11972;48.078;11.876;2023-04-03T11:59:49;7.60;;;4.38;;
23588;SDS011;11972;48.078;11.876;2023-04-03T12:12:24;4.25;;;2.03;;
23588;SDS011;11972;48.078;11.876;2023-04-03T12:16:27;2.05;;;1.83;;
23588;SDS011;11972;48.078;11.876;2023-04-03T12:24:49;2.78;;;1.70;;
23588;SDS011;11972;48.078;11.876;2023-04-03T12:28:51;1.52;;;1.42;;
23588;SDS011;11972;48.078;11.876;2023-04-03T12:46:50;2.35;;;1.40;;
23588;SDS011;11972;48.078;11.876;2023-04-03T12:50:52;2.55;;;1.60;;
23588;SDS011;11972;48.078;11.876;2023-04-03T12:54:53;1.88;;;1.65;;
23588;SDS011;11972;48.078;11.876;2023-04-03T12:58:54;1.90;;;1.40;;
23588;SDS011;11972;48.078;11.876;2023-04-03T13:03:22;1.42;;;1.30;;
23588;SDS011;11972;48.078;11.876;2023-04-03T13:07:28;1.95;;;1.45;;
23588;SDS011;11972;48.078;11.876;2023-04-03T13:11:36;1.70;;;1.20;;
23588;SDS011;11972;48.078;11.876;2023-04-03T13:15:42;1.70;;;0.90;;
23588;SDS011;11972;48.078;11.876;2023-04-03T13:19:45;2.05;;;0.95;;
23588;SDS011;11972;48.078;11.876;2023-04-03T13:23:47;2.03;;;1.20;;
23588;SDS011;11972;48.078;11.876;2023-04-03T13:27:50;3.25;;;1.60;;
23588;SDS011;11972;48.078;11.876;2023-04-03T13:31:52;5.07;;;1.45;;
23588;SDS011;11972;48.078;11.876;2023-04-03T13:35:56;2.40;;;1.00;;
23588;SDS011;11972;48.078;11.876;2023-04-03T13:48:23;2.13;;;0.93;;
23588;SDS011;11972;48.078;11.876;2023-04-03T13:52:28;1.17;;;1.00;;
23588;SDS011;11972;48.078;11.876;2023-04-03T13:56:36;1.52;;;0.88;;
23588;SDS011;11972;48.078;11.876;2023-04-03T14:00:40;1.00;;;0.80;;
23588;SDS011;11972;48.078;11.876;2023-04-03T14:04:52;1.48;;;0.70;;
23588;SDS011;11972;48.078;11.876;2023-04-03T14:09:07;1.10;;;0.70;;
23588;SDS011;11972;48.078;11.876;2023-04-03T14:13:20;2.63;;;1.02;;
23588;SDS011;11972;48.078;11.876;2023-04-03T14:17:23;2.95;;;1.00;;
23588;SDS011;11972;48.078;11.876;2023-04-03T14:21:24;1.77;;;0.80;;
23588;SDS011;11972;48.078;11.876;2023-04-03T14:25:25;1.42;;;1.05;;
23588;SDS011;11972;48.078;11.876;2023-04-03T14:29:26;1.48;;;0.90;;
23588;SDS011;11972;48.078;11.876;2023-04-03T14:33:26;1.47;;;0.77;;
23588;SDS011;11972;48.078;11.876;2023-04-03T14:37:29;1.73;;;1.17;;
23588;SDS011;11972;48.078;11.876;2023-04-03T14:41:30;1.20;;;0.80;;
23588;SDS011;11972;48.078;11.876;2023-04-03T14:45:31;2.08;;;1.63;;
23588;SDS011;11972;48.078;11.876;2023-04-03T14:49:31;4.07;;;3.33;;
23588;SDS011;11972;48.078;11.876;2023-04-03T14:53:32;2.10;;;1.88;;
23588;SDS011;11972;48.078;11.876;2023-04-03T14:57:32;2.30;;;1.70;;
23588;SDS011;11972;48.078;11.876;2023-04-03T15:01:33;1.92;;;1.45;;
23588;SDS011;11972;48.078;11.876;2023-04-03T15:05:34;1.65;;;0.80;;
23588;SDS011;11972;48.078;11.876;2023-04-03T15:09:36;1.13;;;0.80;;
23588;SDS011;11972;48.078;11.876;2023-04-03T15:13:37;2.28;;;1.10;;
23588;SDS011;11972;48.078;11.876;2023-04-03T15:17:38;2.40;;;2.17;;
23588;SDS011;11972;48.078;11.876;2023-04-03T15:21:39;2.28;;;1.67;;
23588;SDS011;11972;48.078;11.876;2023-04-03T15:25:40;1.58;;;1.00;;
23588;SDS011;11972;48.078;11.876;2023-04-03T15:29:41;1.65;;;0.93;;
23588;SDS011;11972;48.078;11.876;2023-04-03T15:33:42;2.35;;;0.95;;
23588;SDS011;11972;48.078;11.876;2023-04-03T15:37:43;2.88;;;1.70;;
23588;SDS011;11972;48.078;11.876;2023-04-03T15:41:44;1.27;;;0.85;;
23588;SDS011;11972;48.078;11.876;2023-04-03T15:45:45;1.75;;;1.17;;
23588;SDS011;11972;48.078;11.876;2023-04-03T15:49:45;2.03;;;1.60;;
23588;SDS011;11972;48.078;11.876;2023-04-03T15:53:46;1.40;;;1.00;;
23588;SDS011;11972;48.078;11.876;2023-04-03T15:57:46;2.00;;;1.52;;
23588;SDS011;11972;48.078;11.876;2023-04-03T16:01:47;1.88;;;1.50;;
23588;SDS011;11972;48.078;11.876;2023-04-03T16:05:48;2.17;;;1.30;;
23588;SDS011;11972;48.078;11.876;2023-04-03T16:09:49;1.98;;;1.10;;
23588;SDS011;11972;48.078;11.876;2023-04-03T16:13:50;2.10;;;0.70;;
23588;SDS011;11972;48.078;11.876;2023-04-03T16:17:50;1.52;;;1.10;;
23588;SDS011;11972;48.078;11.876;2023-04-03T16:21:52;1.48;;;0.93;;
23588;SDS011;11972;48.078;11.876;2023-04-03T16:25:54;1.80;;;1.23;;
23588;SDS011;11972;48.078;11.876;2023-04-03T16:29:54;1.15;;;0.82;;
23588;SDS011;11972;48.078;11.876;2023-04-03T16:33:55;1.65;;;1.10;;
23588;SDS011;11972;48.078;11.876;2023-04-03T16:37:56;1.92;;;1.30;;
23588;SDS011;11972;48.078;11.876;2023-04-03T16:41:56;2.55;;;1.33;;
23588;SDS011;11972;48.078;11.876;2023-04-03T16:45:57;3.70;;;1.25;;
23588;SDS011;11972;48.078;11.876;2023-04-03T16:49:58;1.67;;;1.20;;
23588;SDS011;11972;48.078;11.876;2023-04-03T16:53:58;0.88;;;0.82;;
23588;SDS011;11972;48.078;11.876;2023-04-03T16:57:58;3.80;;;2.60;;
23588;SDS011;11972;48.078;11.876;2023-04-03T17:01:59;10.98;;;7.32;;
23588;SDS011;11972;48.078;11.876;2023-04-03T17:05:59;4.68;;;2.65;;
23588;SDS011;11972;48.078;11.876;2023-04-03T17:09:59;4.25;;;2.35;;
23588;SDS011;11972;48.078;11.876;2023-04-03T17:14:00;4.22;;;2.70;;
23588;SDS011;11972;48.078;11.876;2023-04-03T17:18:00;5.15;;;2.42;;
23588;SDS011;11972;48.078;11.876;2023-04-03T17:22:01;12.32;;;6.43;;
23588;SDS011;11972;48.078;11.876;2023-04-03T17:26:03;12.20;;;6.40;;
23588;SDS011;11972;48.078;11.876;2023-04-03T17:30:04;5.25;;;3.13;;
23588;SDS011;11972;48.078;11.876;2023-04-03T17:34:05;8.95;;;4.35;;
23588;SDS011;11972;48.078;11.876;2023-04-03T17:38:06;20.02;;;8.52;;
23588;SDS011;11972;48.078;11.876;2023-04-03T17:42:06;14.13;;;7.40;;
23588;SDS011;11972;48.078;11.876;2023-04-03T17:46:07;26.90;;;12.15;;
23588;SDS011;11972;48.078;11.876;2023-04-03T17:50:09;28.33;;;11.73;;
23588;SDS011;11972;48.078;11.876;2023-04-03T17:54:10;3.17;;;1.92;;
23588;SDS011;11972;48.078;11.876;2023-04-03T17:58:10;1.70;;;0.90;;
23588;SDS011;11972;48.078;11.876;2023-04-03T18:02:11;1.55;;;1.10;;
23588;SDS011;11972;48.078;11.876;2023-04-03T18:06:12;1.63;;;1.00;;
23588;SDS011;11972;48.078;11.876;2023-04-03T18:10:15;2.65;;;1.10;;
23588;SDS011;11972;48.078;11.876;2023-04-03T18:14:20;1.60;;;1.10;;
23588;SDS011;11972;48.078;11.876;2023-04-03T18:18:22;1.77;;;1.60;;
23588;SDS011;11972;48.078;11.876;2023-04-03T18:22:23;1.58;;;1.20;;
23588;SDS011;11972;48.078;11.876;2023-04-03T18:26:25;3.42;;;2.03;;
23588;SDS011;11972;48.078;11.876;2023-04-03T18:30:27;2.13;;;1.80;;
23588;SDS011;11972;48.078;11.876;2023-04-03T18:34:28;1.88;;;1.25;;
23588;SDS011;11972;48.078;11.876;2023-04-03T18:38:29;3.92;;;1.83;;
23588;SDS011;11972;48.078;11.876;2023-04-03T18:42:29;1.95;;;1.35;;
23588;SDS011;11972;48.078;11.876;2023-04-03T18:46:31;2.95;;;2.10;;
23588;SDS011;11972;48.078;11.876;2023-04-03T18:50:32;3.30;;;1.60;;
23588;SDS011;11972;48.078;11.876;2023-04-03T18:54:33;3.53;;;2.83;;
23588;SDS011;11972;48.078;11.876;2023-04-03T18:58:33;3.25;;;2.45;;
23588;SDS011;11972;48.078;11.876;2023-04-03T19:02:34;2.10;;;1.90;;
23588;SDS011;11972;48.078;11.876;2023-04-03T19:06:36;2.83;;;1.85;;
23588;SDS011;11972;48.078;11.876;2023-04-03T19:10:36;2.45;;;1.83;;
23588;SDS011;11972;48.078;11.876;2023-04-03T19:14:37;5.78;;;3.08;;
23588;SDS011;11972;48.078;11.876;2023-04-03T19:18:37;2.20;;;1.63;;
23588;SDS011;11972;48.078;11.876;2023-04-03T19:22:38;6.10;;;2.28;;
23588;SDS011;11972;48.078;11.876;2023-04-03T19:26:39;3.58;;;3.22;;
23588;SDS011;11972;48.078;11.876;2023-04-03T19:30:40;1.83;;;1.52;;
23588;SDS011;11972;48.078;11.876;2023-04-03T19:34:40;2.50;;;1.92;;
23588;SDS011;11972;48.078;11.876;2023-04-03T19:38:41;2.30;;;2.10;;
23588;SDS011;11972;48.078;11.876;2023-04-03T19:42:41;2.13;;;1.85;;
23588;SDS011;11972;48.078;11.876;2023-04-03T19:46:42;3.13;;;2.50;;
23588;SDS011;11972;48.078;11.876;2023-04-03T19:50:42;3.65;;;2.63;;
23588;SDS011;11972;48.078;11.876;2023-04-03T19:54:43;3.15;;;2.60;;
23588;SDS011;11972;48.078;11.876;2023-04-03T19:58:43;3.55;;;2.17;;
23588;SDS011;11972;48.078;11.876;2023-04-03T20:02:44;2.70;;;1.80;;
23588;SDS011;11972;48.078;11.876;2023-04-03T20:06:45;3.70;;;1.58;;
23588;SDS011;11972;48.078;11.876;2023-04-03T20:10:45;4.10;;;2.00;;
23588;SDS011;11972;48.078;11.876;2023-04-03T20:14:46;5.22;;;2.85;;
23588;SDS011;11972;48.078;11.876;2023-04-03T20:18:46;1.95;;;1.70;;
23588;SDS011;11972;48.078;11.876;2023-04-03T20:22:49;11.95;;;6.85;;
23588;SDS011;11972;48.078;11.876;2023-04-03T20:26:51;9.82;;;5.45;;
23588;SDS011;11972;48.078;11.876;2023-04-03T20:30:52;3.38;;;2.30;;
23588;SDS011;11972;48.078;11.876;2023-04-03T20:34:54;11.15;;;7.40;;
23588;SDS011;11972;48.078;11.876;2023-04-03T20:38:54;2.95;;;2.08;;
23588;SDS011;11972;48.078;11.876;2023-04-03T20:42:55;2.67;;;1.83;;
23588;SDS011;11972;48.078;11.876;2023-04-03T20:46:55;2.83;;;1.77;;
23588;SDS011;11972;48.078;11.876;2023-04-03T20:50:57;2.22;;;1.38;;
23588;SDS011;11972;48.078;11.876;2023-04-03T20:54:57;2.53;;;1.60;;
23588;SDS011;11972;48.078;11.876;2023-04-03T20:58:58;1.92;;;1.52;;
23588;SDS011;11972;48.078;11.876;2023-04-03T21:03:00;3.50;;;1.83;;
23588;SDS011;11972;48.078;11.876;2023-04-03T21:20:17;2.75;;;1.50;;
23588;SDS011;11972;48.078;11.876;2023-04-03T21:24:18;1.95;;;1.48;;
23588;SDS011;11972;48.078;11.876;2023-04-03T21:28:18;2.10;;;1.45;;
23588;SDS011;11972;48.078;11.876;2023-04-03T21:32:19;2.55;;;1.50;;
23588;SDS011;11972;48.078;11.876;2023-04-03T21:36:18;2.85;;;1.80;;
23588;SDS011;11972;48.078;11.876;2023-04-03T21:40:19;2.22;;;1.70;;
23588;SDS011;11972;48.078;11.876;2023-04-03T21:44:19;2.33;;;1.63;;
23588;SDS011;11972;48.078;11.876;2023-04-03T21:48:21;3.00;;;1.83;;
23588;SDS011;11972;48.078;11.876;2023-04-03T21:52:22;3.25;;;2.30;;
23588;SDS011;11972;48.078;11.876;2023-04-03T21:56:22;2.72;;;1.70;;
23588;SDS011;11972;48.078;11.876;2023-04-03T22:00:23;2.67;;;1.95;;
23588;SDS011;11972;48.078;11.876;2023-04-03T22:04:23;3.28;;;1.50;;
23588;SDS011;11972;48.078;11.876;2023-04-03T22:08:25;2.10;;;1.67;;
23588;SDS011;11972;48.078;11.876;2023-04-03T22:12:26;2.22;;;1.63;;
23588;SDS011;11972;48.078;11.876;2023-04-03T22:16:27;3.10;;;1.42;;
23588;SDS011;11972;48.078;11.876;2023-04-03T22:20:27;4.75;;;1.65;;
23588;SDS011;11972;48.078;11.876;2023-04-03T22:24:28;3.28;;;1.40;;
23588;SDS011;11972;48.078;11.876;2023-04-03T22:28:29;2.08;;;1.45;;
23588;SDS011;11972;48.078;11.876;2023-04-03T22:32:31;2.75;;;1.33;;
23588;SDS011;11972;48.078;11.876;2023-04-03T22:36:31;2.60;;;1.67;;
23588;SDS011;11972;48.078;11.876;2023-04-03T22:40:32;1.60;;;1.33;;
23588;SDS011;11972;48.078;11.876;2023-04-03T22:44:32;1.75;;;1.33;;
23588;SDS011;11972;48.078;11.876;2023-04-03T22:48:33;1.85;;;1.25;;
23588;SDS011;11972;48.078;11.876;2023-04-03T22:52:34;2.70;;;1.30;;
23588;SDS011;11972;48.078;11.876;2023-04-03T22:56:34;2.10;;;1.30;;
23588;SDS011;11972;48.078;11.876;2023-04-03T23:00:34;2.25;;;1.40;;
23588;SDS011;11972;48.078;11.876;2023-04-03T23:04:35;1.95;;;1.23;;
23588;SDS011;11972;48.078;11.876;2023-04-03T23:08:35;2.20;;;1.60;;
23588;SDS011;11972;48.078;11.876;2023-04-03T23:12:40;2.20;;;1.10;;
23588;SDS011;11972;48.078;11.876;2023-04-03T23:16:41;2.72;;;1.80;;
23588;SDS011;11972;48.078;11.876;2023-04-03T23:20:41;6.40;;;4.65;;
23588;SDS011;11972;48.078;11.876;2023-04-03T23:24:41;3.03;;;1.60;;
23588;SDS011;11972;48.078;11.876;2023-04-03T23:28:42;3.10;;;1.95;;
23588;SDS011;11972;48.078;11.876;2023-04-03T23:32:42;2.63;;;1.20;;
23588;SDS011;11972;48.078;11.876;2023-04-03T23:36:43;2.03;;;1.77;;
23588;SDS011;11972;48.078;11.876;2023-04-03T23:40:44;2.83;;;1.20;;
23588;SDS011;11972;48.078;11.876;2023-04-03T23:44:45;1.58;;;1.13;;
23588;SDS011;11972;48.078;11.876;2023-04-03T23:48:45;2.30;;;1.35;;
23588;SDS011;11972;48.078;11.876;2023-04-03T23:52:46;2.42;;;1.80;;
23588;SDS011;11972;48.078;11.876;2023-04-03T23:56:46;3.42;;;1.60;;
